createdAt,value
2016-03-01T00:00:51.325Z,0
2016-03-01T00:01:51.312Z,0
2016-03-01T00:02:51.283Z,0
2016-03-01T00:03:51.255Z,0
2016-03-01T00:04:51.257Z,0
2016-03-01T00:05:51.245Z,0
2016-03-01T00:06:51.216Z,0
2016-03-01T00:07:51.187Z,0
2016-03-01T00:08:51.190Z,0
2016-03-01T00:09:51.162Z,0
2016-03-01T00:10:51.148Z,0
2016-03-01T00:11:51.135Z,0
2016-03-01T00:12:51.107Z,0
2016-03-01T00:13:51.095Z,0
2016-03-01T00:14:51.081Z,0
2016-03-01T00:15:51.068Z,0
2016-03-01T00:16:51.039Z,0
2016-03-01T00:17:51.027Z,0
2016-03-01T00:18:50.998Z,0
2016-03-01T00:19:50.986Z,0
2016-03-01T00:20:51.019Z,0
2016-03-01T00:21:50.945Z,0
2016-03-01T00:22:50.947Z,0
2016-03-01T00:23:50.903Z,0
2016-03-01T00:24:50.890Z,0
2016-03-01T00:25:50.892Z,0
2016-03-01T00:26:50.848Z,0
2016-03-01T00:27:50.835Z,0
2016-03-01T00:28:50.838Z,0
2016-03-01T00:29:50.793Z,0
2016-03-01T00:30:50.502Z,0
2016-03-01T00:31:50.786Z,0
2016-03-01T00:32:50.772Z,0
2016-03-01T00:33:50.744Z,0
2016-03-01T00:34:50.732Z,0
2016-03-01T00:35:50.688Z,0
2016-03-01T00:36:50.675Z,0
2016-03-01T00:37:50.693Z,0
2016-03-01T00:38:50.633Z,0
2016-03-01T00:39:50.635Z,0
2016-03-01T00:40:50.623Z,0
2016-03-01T00:41:50.579Z,0
2016-03-01T00:42:50.566Z,0
2016-03-01T00:43:50.568Z,0
2016-03-01T00:44:50.541Z,0
2016-03-01T00:45:50.527Z,0
2016-03-01T00:46:50.499Z,0
2016-03-01T00:47:50.501Z,0
2016-03-01T00:48:50.457Z,0
2016-03-01T00:49:50.459Z,0
2016-03-01T00:50:50.431Z,0
2016-03-01T00:51:50.422Z,0
2016-03-01T00:52:50.409Z,0
2016-03-01T00:53:50.380Z,0
2016-03-01T00:54:50.368Z,0
2016-03-01T00:55:50.354Z,0
2016-03-01T00:56:50.310Z,0
2016-03-01T00:57:50.313Z,0
2016-03-01T00:58:50.285Z,0
2016-03-01T00:59:50.272Z,0
2016-03-01T01:00:50.274Z,0
2016-03-01T01:01:50.229Z,0
2016-03-01T01:02:50.218Z,0
2016-03-01T01:03:50.252Z,0
2016-03-01T01:04:50.192Z,0
2016-03-01T01:05:50.163Z,0
2016-03-01T01:06:50.150Z,0
2016-03-01T01:07:50.137Z,0
2016-03-01T01:08:50.109Z,0
2016-03-01T01:09:50.096Z,0
2016-03-01T01:10:50.067Z,0
2016-03-01T01:11:50.054Z,0
2016-03-01T01:12:50.041Z,0
2016-03-01T01:13:50.028Z,0
2016-03-01T01:14:49.983Z,0
2016-03-01T01:15:49.986Z,0
2016-03-01T01:16:49.974Z,0
2016-03-01T01:17:49.930Z,0
2016-03-01T01:18:49.932Z,0
2016-03-01T01:19:49.919Z,0
2016-03-01T01:20:49.890Z,0
2016-03-01T01:21:49.894Z,0
2016-03-01T01:22:49.850Z,0
2016-03-01T01:23:49.852Z,0
2016-03-01T01:24:49.839Z,0
2016-03-01T01:25:49.794Z,0
2016-03-01T01:26:49.782Z,0
2016-03-01T01:27:49.785Z,0
2016-03-01T01:28:49.740Z,0
2016-03-01T01:29:49.727Z,0
2016-03-01T01:30:49.729Z,0
2016-03-01T01:31:49.701Z,0
2016-03-01T01:32:49.704Z,0
2016-03-01T01:33:49.676Z,0
2016-03-01T01:34:49.632Z,0
2016-03-01T01:35:49.618Z,0
2016-03-01T01:36:49.590Z,0
2016-03-01T01:37:49.608Z,0
2016-03-01T01:38:49.565Z,0
2016-03-01T01:39:49.395Z,0
2016-03-01T01:40:49.539Z,0
2016-03-01T01:41:49.526Z,0
2016-03-01T01:42:49.512Z,0
2016-03-01T01:43:49.468Z,0
2016-03-01T01:44:49.455Z,0
2016-03-01T01:45:49.442Z,0
2016-03-01T01:46:49.430Z,0
2016-03-01T01:47:49.386Z,0
2016-03-01T01:48:49.372Z,0
2016-03-01T01:49:49.375Z,0
2016-03-01T01:50:49.361Z,0
2016-03-01T01:51:49.318Z,0
2016-03-01T01:52:49.336Z,0
2016-03-01T01:53:49.292Z,0
2016-03-01T01:54:49.263Z,0
2016-03-01T01:55:49.266Z,0
2016-03-01T01:56:49.237Z,0
2016-03-01T01:57:49.225Z,0
2016-03-01T01:58:49.258Z,0
2016-03-01T01:59:49.183Z,0
2016-03-01T02:00:49.170Z,0
2016-03-01T02:01:49.204Z,0
2016-03-01T02:02:49.144Z,0
2016-03-01T02:03:49.132Z,0
2016-03-01T02:04:49.103Z,0
2016-03-01T02:05:49.074Z,0
2016-03-01T02:06:49.077Z,0
2016-03-01T02:07:49.033Z,0
2016-03-01T02:08:49.035Z,0
2016-03-01T02:09:49.007Z,0
2016-03-01T02:10:48.978Z,0
2016-03-01T02:11:48.981Z,0
2016-03-01T02:12:48.953Z,0
2016-03-01T02:13:48.784Z,0
2016-03-01T02:14:48.958Z,0
2016-03-01T02:15:48.898Z,0
2016-03-01T02:16:48.900Z,0
2016-03-01T02:17:48.700Z,0
2016-03-01T02:18:48.844Z,0
2016-03-01T02:19:48.846Z,0
2016-03-01T02:20:48.654Z,0
2016-03-01T02:21:48.940Z,0
2016-03-01T02:22:48.833Z,0
2016-03-01T02:23:49.521Z,0
2016-03-01T02:24:49.180Z,0
2016-03-01T02:25:48.776Z,0
2016-03-01T02:26:48.702Z,0
2016-03-01T02:27:48.735Z,0
2016-03-01T02:28:48.675Z,0
2016-03-01T02:29:48.647Z,0
2016-03-01T02:30:48.634Z,0
2016-03-01T02:31:48.621Z,0
2016-03-01T02:32:48.608Z,0
2016-03-01T02:33:48.595Z,0
2016-03-01T02:34:48.551Z,0
2016-03-01T02:35:48.538Z,0
2016-03-01T02:36:48.524Z,0
2016-03-01T02:37:48.496Z,0
2016-03-01T02:38:48.514Z,0
2016-03-01T02:39:48.471Z,0
2016-03-01T02:40:48.457Z,0
2016-03-01T02:41:48.492Z,0
2016-03-01T02:42:48.416Z,0
2016-03-01T02:43:48.403Z,0
2016-03-01T02:44:48.375Z,0
2016-03-01T02:45:48.361Z,0
2016-03-01T02:46:48.380Z,0
2016-03-01T02:47:48.336Z,0
2016-03-01T02:48:48.307Z,0
2016-03-01T02:49:48.294Z,0
2016-03-01T02:50:48.266Z,0
2016-03-01T02:51:48.253Z,0
2016-03-01T02:52:48.239Z,0
2016-03-01T02:53:48.211Z,0
2016-03-01T02:54:48.198Z,0
2016-03-01T02:55:48.200Z,0
2016-03-01T02:56:48.172Z,0
2016-03-01T02:57:48.160Z,0
2016-03-01T02:58:48.178Z,0
2016-03-01T02:59:48.102Z,0
2016-03-01T03:00:48.105Z,0
2016-03-01T03:01:48.076Z,0
2016-03-01T03:02:48.048Z,0
2016-03-01T03:03:48.035Z,0
2016-03-01T03:04:48.069Z,0
2016-03-01T03:05:48.009Z,0
2016-03-01T03:06:47.980Z,0
2016-03-01T03:07:47.968Z,0
2016-03-01T03:08:47.799Z,0
2016-03-01T03:09:47.942Z,0
2016-03-01T03:10:47.898Z,0
2016-03-01T03:11:47.884Z,0
2016-03-01T03:12:47.871Z,0
2016-03-01T03:13:47.859Z,0
2016-03-01T03:14:47.845Z,0
2016-03-01T03:15:47.833Z,0
2016-03-01T03:16:47.804Z,0
2016-03-01T03:17:47.775Z,0
2016-03-01T03:18:47.762Z,0
2016-03-01T03:19:47.750Z,0
2016-03-01T03:20:47.736Z,0
2016-03-01T03:21:47.739Z,0
2016-03-01T03:22:47.695Z,0
2016-03-01T03:23:47.683Z,0
2016-03-01T03:24:47.653Z,0
2016-03-01T03:25:47.642Z,0
2016-03-01T03:26:47.628Z,0
2016-03-01T03:27:47.631Z,0
2016-03-01T03:28:47.586Z,0
2016-03-01T03:29:47.558Z,0
2016-03-01T03:30:47.404Z,0
2016-03-01T03:31:47.532Z,0
2016-03-01T03:32:47.519Z,0
2016-03-01T03:33:47.507Z,0
2016-03-01T03:34:47.509Z,0
2016-03-01T03:35:47.449Z,0
2016-03-01T03:36:47.468Z,0
2016-03-01T03:37:47.423Z,0
2016-03-01T03:38:47.427Z,0
2016-03-01T03:39:47.444Z,0
2016-03-01T03:40:47.369Z,0
2016-03-01T03:41:47.356Z,0
2016-03-01T03:42:47.359Z,0
2016-03-01T03:43:47.315Z,0
2016-03-01T03:44:47.318Z,0
2016-03-01T03:45:47.273Z,0
2016-03-01T03:46:47.276Z,0
2016-03-01T03:47:47.262Z,0
2016-03-01T03:48:47.234Z,0
2016-03-01T03:49:47.220Z,0
2016-03-01T03:50:47.240Z,0
2016-03-01T03:51:47.211Z,0
2016-03-01T03:52:47.183Z,0
2016-03-01T03:53:47.138Z,0
2016-03-01T03:54:47.156Z,0
2016-03-01T03:55:47.127Z,0
2016-03-01T03:56:47.100Z,0
2016-03-01T03:57:47.072Z,0
2016-03-01T03:58:47.042Z,0
2016-03-01T03:59:47.029Z,0
2016-03-01T04:00:47.032Z,0
2016-03-01T04:01:46.988Z,0
2016-03-01T04:02:46.991Z,0
2016-03-01T04:03:46.963Z,0
2016-03-01T04:04:46.949Z,0
2016-03-01T04:05:46.952Z,0
2016-03-01T04:06:46.891Z,0
2016-03-01T04:07:46.894Z,0
2016-03-01T04:08:46.881Z,0
2016-03-01T04:09:46.854Z,0
2016-03-01T04:10:46.819Z,0
2016-03-01T04:11:46.807Z,0
2016-03-01T04:12:46.857Z,0
2016-03-01T04:13:46.781Z,0
2016-03-01T04:14:46.768Z,0
2016-03-01T04:15:46.771Z,0
2016-03-01T04:16:46.726Z,0
2016-03-01T04:17:46.729Z,0
2016-03-01T04:18:46.685Z,0
2016-03-01T04:19:46.672Z,0
2016-03-01T04:20:46.676Z,0
2016-03-01T04:21:46.631Z,0
2016-03-01T04:22:46.618Z,0
2016-03-01T04:23:46.620Z,0
2016-03-01T04:24:46.592Z,0
2016-03-01T04:25:46.579Z,0
2016-03-01T04:26:46.567Z,0
2016-03-01T04:27:46.522Z,0
2016-03-01T04:28:46.525Z,0
2016-03-01T04:29:46.495Z,0
2016-03-01T04:30:46.467Z,0
2016-03-01T04:31:46.470Z,0
2016-03-01T04:32:46.426Z,0
2016-03-01T04:33:46.429Z,0
2016-03-01T04:34:46.416Z,0
2016-03-01T04:35:46.372Z,0
2016-03-01T04:36:46.358Z,0
2016-03-01T04:37:46.392Z,0
2016-03-01T04:38:46.317Z,0
2016-03-01T04:39:46.319Z,0
2016-03-01T04:40:46.291Z,0
2016-03-01T04:41:46.278Z,0
2016-03-01T04:42:46.280Z,0
2016-03-01T04:43:46.237Z,0
2016-03-01T04:44:46.255Z,0
2016-03-01T04:45:46.227Z,0
2016-03-01T04:46:46.182Z,0
2016-03-01T04:47:46.169Z,0
2016-03-01T04:48:46.187Z,0
2016-03-01T04:49:46.112Z,0
2016-03-01T04:50:46.130Z,0
2016-03-01T04:51:46.087Z,0
2016-03-01T04:52:46.073Z,0
2016-03-01T04:53:46.045Z,0
2016-03-01T04:54:46.031Z,0
2016-03-01T04:55:46.034Z,0
2016-03-01T04:56:46.022Z,0
2016-03-01T04:57:45.978Z,0
2016-03-01T04:58:45.965Z,0
2016-03-01T04:59:45.967Z,0
2016-03-01T05:00:45.939Z,0
2016-03-01T05:01:45.925Z,0
2016-03-01T05:02:45.991Z,0
2016-03-01T05:03:45.868Z,0
2016-03-01T05:04:45.856Z,0
2016-03-01T05:05:45.858Z,0
2016-03-01T05:06:45.830Z,0
2016-03-01T05:07:45.833Z,0
2016-03-01T05:08:45.819Z,0
2016-03-01T05:09:45.760Z,0
2016-03-01T05:10:45.762Z,0
2016-03-01T05:11:45.780Z,0
2016-03-01T05:12:45.721Z,0
2016-03-01T05:13:45.708Z,0
2016-03-01T05:14:45.679Z,0
2016-03-01T05:15:45.666Z,0
2016-03-01T05:16:45.669Z,0
2016-03-01T05:17:45.625Z,0
2016-03-01T05:18:45.611Z,0
2016-03-01T05:19:45.587Z,0
2016-03-01T05:20:45.578Z,0
2016-03-01T05:21:45.523Z,0
2016-03-01T05:22:45.484Z,0
2016-03-01T05:23:45.492Z,0
2016-03-01T05:24:45.458Z,0
2016-03-01T05:25:45.425Z,0
2016-03-01T05:26:45.393Z,0
2016-03-01T05:27:45.376Z,0
2016-03-01T05:28:45.359Z,0
2016-03-01T05:29:45.392Z,0
2016-03-01T05:30:45.315Z,0
2016-03-01T05:31:45.316Z,0
2016-03-01T05:32:45.270Z,0
2016-03-01T05:33:45.255Z,0
2016-03-01T05:34:45.242Z,0
2016-03-01T05:35:45.229Z,0
2016-03-01T05:36:45.200Z,0
2016-03-01T05:37:45.186Z,0
2016-03-01T05:38:45.173Z,0
2016-03-01T05:39:45.175Z,0
2016-03-01T05:40:45.132Z,0
2016-03-01T05:41:45.149Z,0
2016-03-01T05:42:45.089Z,0
2016-03-01T05:43:45.091Z,0
2016-03-01T05:44:45.047Z,0
2016-03-01T05:45:45.034Z,0
2016-03-01T05:46:45.022Z,0
2016-03-01T05:47:45.008Z,0
2016-03-01T05:48:45.027Z,0
2016-03-01T05:49:44.966Z,0
2016-03-01T05:50:44.954Z,0
2016-03-01T05:51:44.924Z,0
2016-03-01T05:52:44.912Z,0
2016-03-01T05:53:44.743Z,0
2016-03-01T05:54:44.871Z,0
2016-03-01T05:55:44.843Z,0
2016-03-01T05:56:44.845Z,0
2016-03-01T05:57:44.815Z,0
2016-03-01T05:58:44.804Z,0
2016-03-01T05:59:44.774Z,0
2016-03-01T06:00:44.762Z,0
2016-03-01T06:01:44.624Z,0
2016-03-01T06:02:44.720Z,0
2016-03-01T06:03:44.707Z,0
2016-03-01T06:04:44.695Z,0
2016-03-01T06:05:44.681Z,0
2016-03-01T06:06:44.668Z,0
2016-03-01T06:07:44.640Z,0
2016-03-01T06:08:44.611Z,0
2016-03-01T06:09:44.598Z,0
2016-03-01T06:10:44.585Z,0
2016-03-01T06:11:44.573Z,0
2016-03-01T06:12:44.559Z,0
2016-03-01T06:13:44.516Z,0
2016-03-01T06:14:44.519Z,0
2016-03-01T06:15:44.505Z,0
2016-03-01T06:16:44.539Z,0
2016-03-01T06:17:44.463Z,0
2016-03-01T06:18:44.435Z,0
2016-03-01T06:19:44.422Z,0
2016-03-01T06:20:44.410Z,0
2016-03-01T06:21:44.396Z,0
2016-03-01T06:22:44.368Z,0
2016-03-01T06:23:44.338Z,0
2016-03-01T06:24:44.342Z,0
2016-03-01T06:25:44.313Z,0
2016-03-01T06:26:44.285Z,0
2016-03-01T06:27:44.272Z,0
2016-03-01T06:28:44.259Z,4
2016-03-01T06:29:44.543Z,0
2016-03-01T06:30:44.218Z,0
2016-03-01T06:31:44.220Z,0
2016-03-01T06:32:44.192Z,0
2016-03-01T06:33:44.179Z,0
2016-03-01T06:34:44.165Z,0
2016-03-01T06:35:44.137Z,0
2016-03-01T06:36:44.108Z,0
2016-03-01T06:37:44.096Z,0
2016-03-01T06:38:44.083Z,0
2016-03-01T06:39:44.086Z,4
2016-03-01T06:40:44.041Z,4
2016-03-01T06:41:44.044Z,0
2016-03-01T06:42:44.000Z,0
2016-03-01T06:43:43.987Z,0
2016-03-01T06:44:43.974Z,0
2016-03-01T06:45:43.961Z,0
2016-03-01T06:46:43.933Z,0
2016-03-01T06:47:43.966Z,0
2016-03-01T06:48:43.906Z,0
2016-03-01T06:49:43.908Z,0
2016-03-01T06:50:43.865Z,0
2016-03-01T06:51:43.852Z,0
2016-03-01T06:52:43.838Z,0
2016-03-01T06:53:43.810Z,0
2016-03-01T06:54:43.797Z,0
2016-03-01T06:55:43.785Z,0
2016-03-01T06:56:43.772Z,0
2016-03-01T06:57:43.743Z,0
2016-03-01T06:58:43.730Z,0
2016-03-01T06:59:43.702Z,0
2016-03-01T07:00:43.688Z,0
2016-03-01T07:01:43.660Z,0
2016-03-01T07:02:43.648Z,0
2016-03-01T07:03:43.682Z,0
2016-03-01T07:04:43.637Z,0
2016-03-01T07:05:43.593Z,0
2016-03-01T07:06:43.564Z,0
2016-03-01T07:07:43.567Z,0
2016-03-01T07:08:43.539Z,0
2016-03-01T07:09:43.542Z,0
2016-03-01T07:10:43.528Z,0
2016-03-01T07:11:43.484Z,4
2016-03-01T07:12:43.470Z,4
2016-03-01T07:13:43.443Z,4
2016-03-01T07:14:43.430Z,4
2016-03-01T07:15:43.433Z,4
2016-03-01T07:16:43.481Z,4
2016-03-01T07:17:43.375Z,4
2016-03-01T07:18:43.378Z,0
2016-03-01T07:19:43.380Z,0
2016-03-01T07:20:43.321Z,0
2016-03-01T07:21:43.308Z,0
2016-03-01T07:22:43.311Z,0
2016-03-01T07:23:43.282Z,0
2016-03-01T07:24:43.269Z,0
2016-03-01T07:25:43.240Z,0
2016-03-01T07:26:43.228Z,0
2016-03-01T07:27:43.199Z,0
2016-03-01T07:28:43.202Z,0
2016-03-01T07:29:43.157Z,0
2016-03-01T07:30:43.144Z,4
2016-03-01T07:31:43.146Z,4
2016-03-01T07:32:43.134Z,4
2016-03-01T07:33:43.106Z,4
2016-03-01T07:34:43.062Z,4
2016-03-01T07:35:43.048Z,4
2016-03-01T07:36:43.051Z,4
2016-03-01T07:37:43.038Z,4
2016-03-01T07:38:43.056Z,4
2016-03-01T07:39:42.997Z,4
2016-03-01T07:40:42.953Z,4
2016-03-01T07:41:42.956Z,0
2016-03-01T07:42:42.943Z,0
2016-03-01T07:43:43.117Z,0
2016-03-01T07:44:42.900Z,0
2016-03-01T07:45:42.872Z,4
2016-03-01T07:46:42.859Z,4
2016-03-01T07:47:42.894Z,4
2016-03-01T07:48:42.803Z,4
2016-03-01T07:49:42.664Z,4
2016-03-01T07:50:42.776Z,4
2016-03-01T07:51:42.780Z,4
2016-03-01T07:52:42.797Z,4
2016-03-01T07:53:42.753Z,0
2016-03-01T07:54:42.708Z,4
2016-03-01T07:55:42.696Z,4
2016-03-01T07:56:42.683Z,4
2016-03-01T07:57:42.654Z,4
2016-03-01T07:58:42.674Z,4
2016-03-01T07:59:42.629Z,4
2016-03-01T08:00:42.615Z,4
2016-03-01T08:01:42.602Z,4
2016-03-01T08:02:42.559Z,4
2016-03-01T08:03:42.546Z,4
2016-03-01T08:04:42.532Z,4
2016-03-01T08:05:42.504Z,4
2016-03-01T08:06:42.507Z,4
2016-03-01T08:07:42.478Z,4
2016-03-01T08:08:42.481Z,4
2016-03-01T08:09:42.437Z,4
2016-03-01T08:10:42.409Z,4
2016-03-01T08:11:42.426Z,4
2016-03-01T08:12:42.382Z,4
2016-03-01T08:13:42.385Z,4
2016-03-01T08:14:45.497Z,4
2016-03-01T08:15:45.265Z,4
2016-03-01T08:16:42.314Z,4
2016-03-01T08:17:44.037Z,4
2016-03-01T08:18:46.992Z,4
2016-03-01T08:19:42.261Z,4
2016-03-01T08:20:47.373Z,4
2016-03-01T08:21:47.063Z,4
2016-03-01T08:22:47.613Z,4
2016-03-01T08:23:47.146Z,4
2016-03-01T08:24:47.946Z,4
2016-03-01T08:25:47.542Z,4
2016-03-01T08:26:47.716Z,4
2016-03-01T08:27:47.360Z,4
2016-03-01T08:28:47.754Z,4
2016-03-01T08:29:47.599Z,4
2016-03-01T08:30:47.602Z,4
2016-03-01T08:31:47.277Z,4
2016-03-01T08:32:44.640Z,4
2016-03-01T08:33:46.892Z,4
2016-03-01T08:34:47.223Z,4
2016-03-01T08:35:46.616Z,4
2016-03-01T08:36:46.963Z,4
2016-03-01T08:37:41.934Z,4
2016-03-01T08:38:41.936Z,4
2016-03-01T08:39:41.909Z,8
2016-03-01T08:40:41.895Z,8
2016-03-01T08:41:41.867Z,8
2016-03-01T08:42:41.854Z,4
2016-03-01T08:43:41.840Z,4
2016-03-01T08:44:41.812Z,4
2016-03-01T08:45:42.236Z,4
2016-03-01T08:46:41.787Z,4
2016-03-01T08:47:41.773Z,4
2016-03-01T08:48:41.588Z,4
2016-03-01T08:49:41.778Z,4
2016-03-01T08:50:41.719Z,4
2016-03-01T08:51:41.675Z,4
2016-03-01T08:52:41.662Z,4
2016-03-01T08:53:41.650Z,4
2016-03-01T08:54:41.636Z,4
2016-03-01T08:55:41.622Z,4
2016-03-01T08:56:41.595Z,4
2016-03-01T08:57:41.582Z,4
2016-03-01T08:58:41.569Z,4
2016-03-01T08:59:41.555Z,4
2016-03-01T09:00:41.574Z,4
2016-03-01T09:01:41.514Z,4
2016-03-01T09:02:41.501Z,4
2016-03-01T09:03:41.473Z,4
2016-03-01T09:04:41.460Z,4
2016-03-01T09:05:41.446Z,4
2016-03-01T09:06:41.434Z,4
2016-03-01T09:07:41.405Z,4
2016-03-01T09:08:41.251Z,8
2016-03-01T09:09:41.379Z,8
2016-03-01T09:10:41.366Z,8
2016-03-01T09:11:41.323Z,8
2016-03-01T09:12:41.309Z,8
2016-03-01T09:13:41.312Z,4
2016-03-01T09:14:41.268Z,4
2016-03-01T09:15:41.270Z,8
2016-03-01T09:16:41.242Z,4
2016-03-01T09:17:41.213Z,8
2016-03-01T09:18:41.185Z,8
2016-03-01T09:19:41.187Z,8
2016-03-01T09:20:41.175Z,8
2016-03-01T09:21:41.146Z,8
2016-03-01T09:22:41.117Z,4
2016-03-01T09:23:41.105Z,4
2016-03-01T09:24:41.107Z,4
2016-03-01T09:25:41.095Z,48
2016-03-01T09:26:41.050Z,52
2016-03-01T09:27:41.037Z,52
2016-03-01T09:28:41.040Z,52
2016-03-01T09:29:40.996Z,52
2016-03-01T09:30:40.983Z,52
2016-03-01T09:31:40.969Z,48
2016-03-01T09:32:40.957Z,48
2016-03-01T09:33:40.929Z,48
2016-03-01T09:34:40.915Z,20
2016-03-01T09:35:40.949Z,48
2016-03-01T09:36:40.890Z,52
2016-03-01T09:37:40.861Z,48
2016-03-01T09:38:40.863Z,52
2016-03-01T09:39:40.820Z,52
2016-03-01T09:40:40.823Z,68
2016-03-01T09:41:40.793Z,64
2016-03-01T09:42:40.764Z,64
2016-03-01T09:43:40.751Z,68
2016-03-01T09:44:40.739Z,68
2016-03-01T09:45:40.726Z,68
2016-03-01T09:46:40.697Z,68
2016-03-01T09:47:40.670Z,68
2016-03-01T09:48:40.672Z,68
2016-03-01T09:49:40.642Z,68
2016-03-01T09:50:40.630Z,68
2016-03-01T09:51:40.648Z,68
2016-03-01T09:52:40.572Z,68
2016-03-01T09:53:40.560Z,68
2016-03-01T09:54:40.563Z,68
2016-03-01T09:55:40.550Z,68
2016-03-01T09:56:40.505Z,68
2016-03-01T09:57:40.494Z,68
2016-03-01T09:58:40.480Z,68
2016-03-01T09:59:40.467Z,72
2016-03-01T10:00:40.454Z,72
2016-03-01T10:01:40.457Z,72
2016-03-01T10:02:40.428Z,68
2016-03-01T10:03:40.399Z,68
2016-03-01T10:04:40.355Z,68
2016-03-01T10:05:40.374Z,72
2016-03-01T10:06:40.330Z,72
2016-03-01T10:07:40.301Z,72
2016-03-01T10:08:40.304Z,68
2016-03-01T10:09:40.291Z,72
2016-03-01T10:10:40.090Z,72
2016-03-01T10:11:40.234Z,68
2016-03-01T10:12:40.221Z,68
2016-03-01T10:13:40.207Z,68
2016-03-01T10:14:40.195Z,68
2016-03-01T10:15:40.197Z,68
2016-03-01T10:16:40.153Z,68
2016-03-01T10:17:40.125Z,68
2016-03-01T10:18:40.111Z,68
2016-03-01T10:19:40.099Z,68
2016-03-01T10:20:40.086Z,68
2016-03-01T10:21:40.057Z,68
2016-03-01T10:22:40.044Z,68
2016-03-01T10:23:40.016Z,68
2016-03-01T10:24:40.019Z,68
2016-03-01T10:25:39.989Z,68
2016-03-01T10:26:39.992Z,68
2016-03-01T10:27:39.949Z,68
2016-03-01T10:28:39.951Z,68
2016-03-01T10:29:39.891Z,68
2016-03-01T10:30:39.910Z,72
2016-03-01T10:31:39.866Z,72
2016-03-01T10:32:39.852Z,72
2016-03-01T10:33:39.840Z,72
2016-03-01T10:34:39.827Z,72
2016-03-01T10:35:39.845Z,72
2016-03-01T10:36:39.785Z,68
2016-03-01T10:37:39.771Z,72
2016-03-01T10:38:39.760Z,72
2016-03-01T10:39:39.731Z,72
2016-03-01T10:40:39.749Z,72
2016-03-01T10:41:39.690Z,72
2016-03-01T10:42:39.707Z,72
2016-03-01T10:43:39.679Z,72
2016-03-01T10:44:39.635Z,72
2016-03-01T10:45:39.623Z,72
2016-03-01T10:46:39.609Z,72
2016-03-01T10:47:39.580Z,72
2016-03-01T10:48:39.568Z,68
2016-03-01T10:49:39.554Z,72
2016-03-01T10:50:39.542Z,72
2016-03-01T10:51:39.545Z,72
2016-03-01T10:52:39.500Z,72
2016-03-01T10:53:39.486Z,76
2016-03-01T10:54:39.458Z,76
2016-03-01T10:55:39.445Z,76
2016-03-01T10:56:39.433Z,72
2016-03-01T10:57:39.404Z,76
2016-03-01T10:58:39.391Z,76
2016-03-01T10:59:39.378Z,72
2016-03-01T11:00:39.365Z,72
2016-03-01T11:01:39.337Z,72
2016-03-01T11:02:39.668Z,72
2016-03-01T11:03:39.296Z,72
2016-03-01T11:04:39.266Z,72
2016-03-01T11:05:39.254Z,72
2016-03-01T11:06:39.257Z,72
2016-03-01T11:07:39.274Z,72
2016-03-01T11:08:39.402Z,72
2016-03-01T11:09:39.187Z,72
2016-03-01T11:10:39.158Z,72
2016-03-01T11:11:39.160Z,72
2016-03-01T11:12:39.148Z,72
2016-03-01T11:13:39.135Z,72
2016-03-01T11:14:39.090Z,72
2016-03-01T11:15:39.093Z,72
2016-03-01T11:16:39.081Z,72
2016-03-01T11:17:39.051Z,72
2016-03-01T11:18:38.867Z,72
2016-03-01T11:19:38.994Z,72
2016-03-01T11:20:38.982Z,72
2016-03-01T11:21:38.984Z,72
2016-03-01T11:22:39.081Z,72
2016-03-01T11:23:38.942Z,72
2016-03-01T11:24:38.914Z,72
2016-03-01T11:25:38.900Z,72
2016-03-01T11:26:38.904Z,68
2016-03-01T11:27:38.860Z,68
2016-03-01T11:28:38.847Z,68
2016-03-01T11:29:38.833Z,68
2016-03-01T11:30:38.836Z,72
2016-03-01T11:31:38.792Z,72
2016-03-01T11:32:38.763Z,72
2016-03-01T11:33:38.752Z,68
2016-03-01T11:34:38.738Z,72
2016-03-01T11:35:38.740Z,72
2016-03-01T11:36:38.696Z,72
2016-03-01T11:37:38.683Z,72
2016-03-01T11:38:38.671Z,72
2016-03-01T11:39:38.657Z,72
2016-03-01T11:40:38.645Z,72
2016-03-01T11:41:38.616Z,72
2016-03-01T11:42:38.587Z,72
2016-03-01T11:43:38.575Z,72
2016-03-01T11:44:38.859Z,72
2016-03-01T11:45:38.580Z,68
2016-03-01T11:46:38.520Z,68
2016-03-01T11:47:38.507Z,68
2016-03-01T11:48:38.495Z,72
2016-03-01T11:49:38.465Z,72
2016-03-01T11:50:38.453Z,72
2016-03-01T11:51:38.440Z,72
2016-03-01T11:52:38.411Z,68
2016-03-01T11:53:38.384Z,68
2016-03-01T11:54:38.386Z,68
2016-03-01T11:55:38.357Z,68
2016-03-01T11:56:38.344Z,72
2016-03-01T11:57:38.331Z,72
2016-03-01T11:58:38.302Z,68
2016-03-01T11:59:38.883Z,68
2016-03-01T12:00:38.260Z,68
2016-03-01T12:01:38.264Z,68
2016-03-01T12:02:38.235Z,68
2016-03-01T12:03:38.222Z,64
2016-03-01T12:04:38.194Z,64
2016-03-01T12:05:38.180Z,68
2016-03-01T12:06:38.153Z,68
2016-03-01T12:07:38.156Z,68
2016-03-01T12:08:38.127Z,68
2016-03-01T12:09:38.099Z,64
2016-03-01T12:10:38.085Z,64
2016-03-01T12:11:38.089Z,64
2016-03-01T12:12:38.060Z,64
2016-03-01T12:13:38.031Z,64
2016-03-01T12:14:37.863Z,60
2016-03-01T12:15:37.990Z,60
2016-03-01T12:16:37.993Z,60
2016-03-01T12:17:38.058Z,64
2016-03-01T12:18:37.951Z,60
2016-03-01T12:19:37.938Z,60
2016-03-01T12:20:37.909Z,60
2016-03-01T12:21:37.882Z,60
2016-03-01T12:22:37.884Z,60
2016-03-01T12:23:37.840Z,60
2016-03-01T12:24:37.843Z,60
2016-03-01T12:25:37.813Z,60
2016-03-01T12:26:37.784Z,56
2016-03-01T12:27:38.209Z,60
2016-03-01T12:28:37.759Z,60
2016-03-01T12:29:37.777Z,56
2016-03-01T12:30:37.748Z,56
2016-03-01T12:31:37.798Z,56
2016-03-01T12:32:37.723Z,52
2016-03-01T12:33:37.679Z,56
2016-03-01T12:34:37.666Z,56
2016-03-01T12:35:37.622Z,56
2016-03-01T12:36:37.624Z,52
2016-03-01T12:37:37.596Z,56
2016-03-01T12:38:37.614Z,52
2016-03-01T12:39:37.585Z,52
2016-03-01T12:40:37.526Z,52
2016-03-01T12:41:37.528Z,52
2016-03-01T12:42:37.500Z,48
2016-03-01T12:43:37.503Z,48
2016-03-01T12:44:37.490Z,48
2016-03-01T12:45:37.477Z,52
2016-03-01T12:46:37.433Z,48
2016-03-01T12:47:37.420Z,48
2016-03-01T12:48:37.391Z,48
2016-03-01T12:49:37.378Z,48
2016-03-01T12:50:37.365Z,48
2016-03-01T12:51:37.368Z,44
2016-03-01T12:52:37.340Z,44
2016-03-01T12:53:37.310Z,44
2016-03-01T12:54:37.298Z,48
2016-03-01T12:55:37.269Z,48
2016-03-01T12:56:37.257Z,48
2016-03-01T12:57:37.228Z,48
2016-03-01T12:58:37.230Z,44
2016-03-01T12:59:37.187Z,48
2016-03-01T13:00:37.189Z,44
2016-03-01T13:01:37.160Z,44
2016-03-01T13:02:37.163Z,44
2016-03-01T13:03:37.150Z,44
2016-03-01T13:04:37.122Z,40
2016-03-01T13:05:37.093Z,40
2016-03-01T13:06:37.080Z,40
2016-03-01T13:07:37.067Z,40
2016-03-01T13:08:37.054Z,40
2016-03-01T13:09:37.011Z,40
2016-03-01T13:10:36.997Z,36
2016-03-01T13:11:36.981Z,36
2016-03-01T13:12:36.969Z,36
2016-03-01T13:13:36.971Z,36
2016-03-01T13:14:36.959Z,36
2016-03-01T13:15:36.900Z,40
2016-03-01T13:16:36.902Z,40
2016-03-01T13:17:36.873Z,40
2016-03-01T13:18:36.844Z,40
2016-03-01T13:19:36.831Z,40
2016-03-01T13:20:36.818Z,40
2016-03-01T13:21:36.806Z,40
2016-03-01T13:22:36.777Z,40
2016-03-01T13:23:36.763Z,40
2016-03-01T13:24:36.735Z,44
2016-03-01T13:25:36.722Z,40
2016-03-01T13:26:36.725Z,40
2016-03-01T13:27:36.774Z,36
2016-03-01T13:28:36.668Z,40
2016-03-01T13:29:36.654Z,40
2016-03-01T13:30:36.643Z,36
2016-03-01T13:31:36.473Z,40
2016-03-01T13:32:36.615Z,36
2016-03-01T13:33:36.651Z,36
2016-03-01T13:34:36.559Z,32
2016-03-01T13:35:36.546Z,36
2016-03-01T13:36:36.534Z,32
2016-03-01T13:37:36.504Z,32
2016-03-01T13:38:36.492Z,32
2016-03-01T13:39:36.509Z,32
2016-03-01T13:40:36.451Z,32
2016-03-01T13:41:36.469Z,32
2016-03-01T13:42:36.425Z,32
2016-03-01T13:43:36.401Z,32
2016-03-01T13:44:36.372Z,28
2016-03-01T13:45:36.359Z,28
2016-03-01T13:46:36.361Z,32
2016-03-01T13:47:36.333Z,32
2016-03-01T13:48:36.366Z,32
2016-03-01T13:49:36.292Z,28
2016-03-01T13:50:36.294Z,28
2016-03-01T13:51:36.266Z,28
2016-03-01T13:52:36.253Z,28
2016-03-01T13:53:36.224Z,28
2016-03-01T13:54:36.227Z,28
2016-03-01T13:55:36.199Z,28
2016-03-01T13:56:36.154Z,28
2016-03-01T13:57:36.141Z,28
2016-03-01T13:58:36.144Z,24
2016-03-01T13:59:36.131Z,24
2016-03-01T14:00:36.103Z,24
2016-03-01T14:01:36.090Z,24
2016-03-01T14:02:36.062Z,28
2016-03-01T14:03:36.049Z,28
2016-03-01T14:04:36.020Z,28
2016-03-01T14:05:36.006Z,28
2016-03-01T14:06:35.994Z,24
2016-03-01T14:07:35.965Z,24
2016-03-01T14:08:35.953Z,28
2016-03-01T14:09:35.923Z,24
2016-03-01T14:10:35.926Z,24
2016-03-01T14:11:35.897Z,24
2016-03-01T14:12:35.869Z,24
2016-03-01T14:13:35.856Z,24
2016-03-01T14:14:35.844Z,24
2016-03-01T14:15:35.862Z,24
2016-03-01T14:16:35.802Z,24
2016-03-01T14:17:35.774Z,24
2016-03-01T14:18:35.854Z,24
2016-03-01T14:19:35.747Z,20
2016-03-01T14:20:35.735Z,24
2016-03-01T14:21:35.721Z,24
2016-03-01T14:22:35.694Z,20
2016-03-01T14:23:35.681Z,20
2016-03-01T14:24:35.668Z,20
2016-03-01T14:25:35.634Z,20
2016-03-01T14:26:35.451Z,20
2016-03-01T14:27:35.426Z,16
2016-03-01T14:28:35.555Z,16
2016-03-01T14:29:35.530Z,16
2016-03-01T14:30:35.492Z,16
2016-03-01T14:31:35.458Z,16
2016-03-01T14:32:35.456Z,16
2016-03-01T14:33:35.924Z,20
2016-03-01T14:34:35.390Z,20
2016-03-01T14:35:35.843Z,20